Sault Ste Marie, Canada
Current Conditions -  °F | °C
As of 9:55 AM on Friday 24 Oct 2014 (Local Time) from KANJ Reporting Station
Moderate Fog Moderate Fog  
Wind Chill: 42°   Ceiling: 200
Heat Index: 44°   Visibility: 0.5mi
Dew Point: 43°   Wind: 5mph
Humidity: 96%   Direction: 70°ENE
Pressure: 29.99"   Gusts: NA
Location:  46.52°N, 84.35°W
Report Text: KANJ 241355Z AUTO 07004KT 1/2SM FG VV002 07/06 A2999 RMK AO2 SLP158 T00670061
Loading
Personal Weather Stations






























Interactive Weather Map
Tropical Storm Tracking
New forecast layout! Learn more

10-Day Weather Forecast

Advertisements
Track Severe Weather on mobile